sensor_id;sensor_type;location;lat;lon;timestamp;P1;durP1;ratioP1;P2;durP2;ratioP2
25721;SDS011;13578;53.450;15.496;2022-07-10T00:00:03;11.35;;;1.88;;
25721;SDS011;13578;53.450;15.496;2022-07-10T00:03:06;17.45;;;2.58;;
25721;SDS011;13578;53.450;15.496;2022-07-10T00:06:07;5.20;;;1.48;;
25721;SDS011;13578;53.450;15.496;2022-07-10T00:09:07;7.10;;;1.30;;
25721;SDS011;13578;53.450;15.496;2022-07-10T00:12:08;7.18;;;1.60;;
25721;SDS011;13578;53.450;15.496;2022-07-10T00:15:09;12.10;;;2.05;;
25721;SDS011;13578;53.450;15.496;2022-07-10T00:18:10;10.38;;;1.98;;
25721;SDS011;13578;53.450;15.496;2022-07-10T00:21:11;10.98;;;3.03;;
25721;SDS011;13578;53.450;15.496;2022-07-10T00:24:11;11.60;;;2.35;;
25721;SDS011;13578;53.450;15.496;2022-07-10T00:27:12;12.45;;;2.25;;
25721;SDS011;13578;53.450;15.496;2022-07-10T00:30:13;14.27;;;2.47;;
25721;SDS011;13578;53.450;15.496;2022-07-10T00:33:14;12.63;;;2.25;;
25721;SDS011;13578;53.450;15.496;2022-07-10T00:36:14;11.43;;;2.67;;
25721;SDS011;13578;53.450;15.496;2022-07-10T00:39:15;15.52;;;2.40;;
25721;SDS011;13578;53.450;15.496;2022-07-10T00:42:16;10.38;;;2.25;;
25721;SDS011;13578;53.450;15.496;2022-07-10T00:45:17;16.38;;;2.70;;
25721;SDS011;13578;53.450;15.496;2022-07-10T00:48:17;15.55;;;2.78;;
25721;SDS011;13578;53.450;15.496;2022-07-10T00:51:20;15.30;;;2.75;;
25721;SDS011;13578;53.450;15.496;2022-07-10T00:54:21;12.77;;;2.50;;
25721;SDS011;13578;53.450;15.496;2022-07-10T00:57:22;15.25;;;3.00;;
25721;SDS011;13578;53.450;15.496;2022-07-10T01:00:23;22.52;;;3.38;;
25721;SDS011;13578;53.450;15.496;2022-07-10T01:03:26;15.90;;;3.05;;
25721;SDS011;13578;53.450;15.496;2022-07-10T01:06:27;21.42;;;3.58;;
25721;SDS011;13578;53.450;15.496;2022-07-10T01:09:28;14.93;;;2.90;;
25721;SDS011;13578;53.450;15.496;2022-07-10T01:12:29;15.43;;;2.92;;
25721;SDS011;13578;53.450;15.496;2022-07-10T01:15:31;14.95;;;3.70;;
25721;SDS011;13578;53.450;15.496;2022-07-10T01:18:33;16.05;;;3.38;;
25721;SDS011;13578;53.450;15.496;2022-07-10T01:21:34;16.73;;;3.55;;
25721;SDS011;13578;53.450;15.496;2022-07-10T01:24:36;21.73;;;3.08;;
25721;SDS011;13578;53.450;15.496;2022-07-10T01:27:37;17.88;;;3.72;;
25721;SDS011;13578;53.450;15.496;2022-07-10T01:30:38;20.42;;;3.67;;
25721;SDS011;13578;53.450;15.496;2022-07-10T01:33:39;12.75;;;2.90;;
25721;SDS011;13578;53.450;15.496;2022-07-10T01:36:40;17.30;;;3.15;;
25721;SDS011;13578;53.450;15.496;2022-07-10T01:39:41;14.43;;;3.33;;
25721;SDS011;13578;53.450;15.496;2022-07-10T01:42:42;16.83;;;3.53;;
25721;SDS011;13578;53.450;15.496;2022-07-10T01:45:43;15.63;;;2.92;;
25721;SDS011;13578;53.450;15.496;2022-07-10T01:48:44;12.48;;;2.95;;
25721;SDS011;13578;53.450;15.496;2022-07-10T01:51:45;14.07;;;2.97;;
25721;SDS011;13578;53.450;15.496;2022-07-10T01:54:46;13.68;;;3.22;;
25721;SDS011;13578;53.450;15.496;2022-07-10T01:57:47;21.00;;;3.78;;
25721;SDS011;13578;53.450;15.496;2022-07-10T02:00:48;18.70;;;3.20;;
25721;SDS011;13578;53.450;15.496;2022-07-10T02:03:49;16.90;;;2.97;;
25721;SDS011;13578;53.450;15.496;2022-07-10T02:07:09;15.70;;;2.90;;
25721;SDS011;13578;53.450;15.496;2022-07-10T02:10:13;19.90;;;2.70;;
25721;SDS011;13578;53.450;15.496;2022-07-10T02:13:13;22.65;;;3.20;;
25721;SDS011;13578;53.450;15.496;2022-07-10T02:16:15;15.82;;;2.58;;
25721;SDS011;13578;53.450;15.496;2022-07-10T02:19:15;19.20;;;3.28;;
25721;SDS011;13578;53.450;15.496;2022-07-10T02:22:16;16.10;;;2.63;;
25721;SDS011;13578;53.450;15.496;2022-07-10T02:25:17;23.25;;;3.42;;
25721;SDS011;13578;53.450;15.496;2022-07-10T02:28:17;19.33;;;2.45;;
25721;SDS011;13578;53.450;15.496;2022-07-10T02:31:18;14.02;;;2.40;;
25721;SDS011;13578;53.450;15.496;2022-07-10T02:34:19;11.90;;;2.45;;
25721;SDS011;13578;53.450;15.496;2022-07-10T02:37:19;12.48;;;2.20;;
25721;SDS011;13578;53.450;15.496;2022-07-10T02:40:20;12.15;;;2.55;;
25721;SDS011;13578;53.450;15.496;2022-07-10T02:43:21;23.33;;;3.17;;
25721;SDS011;13578;53.450;15.496;2022-07-10T02:46:22;12.48;;;2.25;;
25721;SDS011;13578;53.450;15.496;2022-07-10T02:49:23;15.50;;;2.75;;
25721;SDS011;13578;53.450;15.496;2022-07-10T02:52:23;12.48;;;2.35;;
25721;SDS011;13578;53.450;15.496;2022-07-10T02:55:24;16.17;;;3.67;;
25721;SDS011;13578;53.450;15.496;2022-07-10T02:58:25;20.48;;;3.00;;
25721;SDS011;13578;53.450;15.496;2022-07-10T03:01:26;9.85;;;2.58;;
25721;SDS011;13578;53.450;15.496;2022-07-10T03:04:26;12.90;;;3.05;;
25721;SDS011;13578;53.450;15.496;2022-07-10T03:07:27;14.50;;;2.92;;
25721;SDS011;13578;53.450;15.496;2022-07-10T03:10:28;11.70;;;2.60;;
25721;SDS011;13578;53.450;15.496;2022-07-10T03:13:29;17.98;;;3.78;;
25721;SDS011;13578;53.450;15.496;2022-07-10T03:16:29;19.60;;;3.90;;
25721;SDS011;13578;53.450;15.496;2022-07-10T03:19:30;16.98;;;3.40;;
25721;SDS011;13578;53.450;15.496;2022-07-10T03:22:31;16.35;;;3.25;;
25721;SDS011;13578;53.450;15.496;2022-07-10T03:25:32;16.52;;;3.63;;
25721;SDS011;13578;53.450;15.496;2022-07-10T03:28:33;18.65;;;3.85;;
25721;SDS011;13578;53.450;15.496;2022-07-10T03:31:34;20.33;;;3.92;;
25721;SDS011;13578;53.450;15.496;2022-07-10T03:34:34;14.13;;;3.42;;
25721;SDS011;13578;53.450;15.496;2022-07-10T03:37:35;18.67;;;4.07;;
25721;SDS011;13578;53.450;15.496;2022-07-10T03:40:36;15.80;;;3.83;;
25721;SDS011;13578;53.450;15.496;2022-07-10T03:43:36;16.98;;;3.88;;
25721;SDS011;13578;53.450;15.496;2022-07-10T03:46:37;17.23;;;3.58;;
25721;SDS011;13578;53.450;15.496;2022-07-10T03:49:38;19.25;;;4.57;;
25721;SDS011;13578;53.450;15.496;2022-07-10T03:52:38;20.48;;;4.85;;
25721;SDS011;13578;53.450;15.496;2022-07-10T03:55:39;15.43;;;4.13;;
25721;SDS011;13578;53.450;15.496;2022-07-10T03:58:40;25.52;;;5.30;;
25721;SDS011;13578;53.450;15.496;2022-07-10T04:01:40;13.40;;;4.78;;
25721;SDS011;13578;53.450;15.496;2022-07-10T04:04:41;18.85;;;3.92;;
25721;SDS011;13578;53.450;15.496;2022-07-10T04:07:42;25.58;;;4.25;;
25721;SDS011;13578;53.450;15.496;2022-07-10T04:10:42;20.52;;;4.53;;
25721;SDS011;13578;53.450;15.496;2022-07-10T04:13:43;15.73;;;4.55;;
25721;SDS011;13578;53.450;15.496;2022-07-10T04:16:43;20.75;;;4.47;;
25721;SDS011;13578;53.450;15.496;2022-07-10T04:19:44;22.60;;;4.80;;
25721;SDS011;13578;53.450;15.496;2022-07-10T04:22:46;22.20;;;4.93;;
25721;SDS011;13578;53.450;15.496;2022-07-10T04:25:47;16.35;;;4.13;;
25721;SDS011;13578;53.450;15.496;2022-07-10T04:28:48;13.82;;;4.55;;
25721;SDS011;13578;53.450;15.496;2022-07-10T04:31:48;16.23;;;3.40;;
25721;SDS011;13578;53.450;15.496;2022-07-10T04:34:49;11.35;;;3.95;;
25721;SDS011;13578;53.450;15.496;2022-07-10T04:37:50;16.27;;;4.05;;
25721;SDS011;13578;53.450;15.496;2022-07-10T04:40:50;16.48;;;4.55;;
25721;SDS011;13578;53.450;15.496;2022-07-10T04:43:51;19.83;;;4.00;;
25721;SDS011;13578;53.450;15.496;2022-07-10T04:46:52;20.80;;;4.47;;
25721;SDS011;13578;53.450;15.496;2022-07-10T04:49:53;15.85;;;4.30;;
25721;SDS011;13578;53.450;15.496;2022-07-10T04:52:54;16.88;;;4.10;;
25721;SDS011;13578;53.450;15.496;2022-07-10T04:55:55;24.88;;;5.70;;
25721;SDS011;13578;53.450;15.496;2022-07-10T04:58:55;19.73;;;4.35;;
25721;SDS011;13578;53.450;15.496;2022-07-10T05:01:56;22.60;;;5.32;;
25721;SDS011;13578;53.450;15.496;2022-07-10T05:04:56;22.23;;;5.57;;
25721;SDS011;13578;53.450;15.496;2022-07-10T05:07:57;17.83;;;5.53;;
25721;SDS011;13578;53.450;15.496;2022-07-10T05:10:59;30.30;;;5.65;;
25721;SDS011;13578;53.450;15.496;2022-07-10T05:13:59;23.60;;;5.65;;
25721;SDS011;13578;53.450;15.496;2022-07-10T05:17:00;19.33;;;5.72;;
25721;SDS011;13578;53.450;15.496;2022-07-10T05:20:01;22.13;;;5.50;;
25721;SDS011;13578;53.450;15.496;2022-07-10T05:23:01;23.02;;;5.20;;
25721;SDS011;13578;53.450;15.496;2022-07-10T05:26:02;19.15;;;5.03;;
25721;SDS011;13578;53.450;15.496;2022-07-10T05:29:03;27.38;;;6.00;;
25721;SDS011;13578;53.450;15.496;2022-07-10T05:32:04;19.55;;;4.45;;
25721;SDS011;13578;53.450;15.496;2022-07-10T05:35:04;22.00;;;5.05;;
25721;SDS011;13578;53.450;15.496;2022-07-10T05:38:06;19.80;;;4.35;;
25721;SDS011;13578;53.450;15.496;2022-07-10T05:41:06;14.57;;;4.22;;
25721;SDS011;13578;53.450;15.496;2022-07-10T05:44:07;22.38;;;5.13;;
25721;SDS011;13578;53.450;15.496;2022-07-10T05:47:08;22.00;;;4.70;;
25721;SDS011;13578;53.450;15.496;2022-07-10T05:50:08;14.60;;;4.03;;
25721;SDS011;13578;53.450;15.496;2022-07-10T05:53:09;18.30;;;4.72;;
25721;SDS011;13578;53.450;15.496;2022-07-10T05:56:10;18.02;;;4.78;;
25721;SDS011;13578;53.450;15.496;2022-07-10T05:59:10;21.95;;;5.07;;
25721;SDS011;13578;53.450;15.496;2022-07-10T06:02:11;23.10;;;5.30;;
25721;SDS011;13578;53.450;15.496;2022-07-10T06:05:12;23.75;;;6.15;;
25721;SDS011;13578;53.450;15.496;2022-07-10T06:08:12;18.67;;;5.32;;
25721;SDS011;13578;53.450;15.496;2022-07-10T06:11:13;16.60;;;4.97;;
25721;SDS011;13578;53.450;15.496;2022-07-10T06:14:14;20.05;;;4.90;;
25721;SDS011;13578;53.450;15.496;2022-07-10T06:17:14;26.17;;;4.97;;
25721;SDS011;13578;53.450;15.496;2022-07-10T06:20:15;26.98;;;4.88;;
25721;SDS011;13578;53.450;15.496;2022-07-10T06:23:16;24.45;;;5.30;;
25721;SDS011;13578;53.450;15.496;2022-07-10T06:26:17;22.80;;;4.32;;
25721;SDS011;13578;53.450;15.496;2022-07-10T06:29:17;14.27;;;3.88;;
25721;SDS011;13578;53.450;15.496;2022-07-10T06:32:18;20.48;;;4.05;;
25721;SDS011;13578;53.450;15.496;2022-07-10T06:35:19;15.48;;;3.90;;
25721;SDS011;13578;53.450;15.496;2022-07-10T06:38:19;14.45;;;3.67;;
25721;SDS011;13578;53.450;15.496;2022-07-10T06:41:20;19.75;;;3.58;;
25721;SDS011;13578;53.450;15.496;2022-07-10T06:44:20;21.42;;;4.10;;
25721;SDS011;13578;53.450;15.496;2022-07-10T06:47:22;19.05;;;2.75;;
25721;SDS011;13578;53.450;15.496;2022-07-10T06:50:41;17.63;;;2.92;;
25721;SDS011;13578;53.450;15.496;2022-07-10T06:53:42;12.48;;;2.65;;
25721;SDS011;13578;53.450;15.496;2022-07-10T06:56:43;17.13;;;2.70;;
25721;SDS011;13578;53.450;15.496;2022-07-10T06:59:43;10.30;;;2.78;;
25721;SDS011;13578;53.450;15.496;2022-07-10T07:02:44;15.95;;;3.70;;
25721;SDS011;13578;53.450;15.496;2022-07-10T07:05:45;16.95;;;2.28;;
25721;SDS011;13578;53.450;15.496;2022-07-10T07:08:46;15.57;;;2.60;;
25721;SDS011;13578;53.450;15.496;2022-07-10T07:11:47;11.10;;;2.58;;
25721;SDS011;13578;53.450;15.496;2022-07-10T07:14:48;16.42;;;2.65;;
25721;SDS011;13578;53.450;15.496;2022-07-10T07:17:48;12.23;;;2.30;;
25721;SDS011;13578;53.450;15.496;2022-07-10T07:21:07;13.32;;;2.53;;
25721;SDS011;13578;53.450;15.496;2022-07-10T07:24:26;12.95;;;2.17;;
25721;SDS011;13578;53.450;15.496;2022-07-10T07:27:27;19.83;;;3.90;;
25721;SDS011;13578;53.450;15.496;2022-07-10T07:30:28;10.80;;;1.88;;
25721;SDS011;13578;53.450;15.496;2022-07-10T07:33:28;12.38;;;2.38;;
25721;SDS011;13578;53.450;15.496;2022-07-10T07:36:29;13.18;;;2.45;;
25721;SDS011;13578;53.450;15.496;2022-07-10T07:39:30;12.27;;;2.05;;
25721;SDS011;13578;53.450;15.496;2022-07-10T07:42:32;12.20;;;2.75;;
25721;SDS011;13578;53.450;15.496;2022-07-10T07:45:33;15.90;;;2.13;;
25721;SDS011;13578;53.450;15.496;2022-07-10T07:48:33;17.30;;;2.92;;
25721;SDS011;13578;53.450;15.496;2022-07-10T07:51:34;16.23;;;2.20;;
25721;SDS011;13578;53.450;15.496;2022-07-10T07:54:35;9.80;;;1.83;;
25721;SDS011;13578;53.450;15.496;2022-07-10T07:57:35;17.48;;;3.03;;
25721;SDS011;13578;53.450;15.496;2022-07-10T08:00:36;8.02;;;2.20;;
25721;SDS011;13578;53.450;15.496;2022-07-10T08:03:38;19.15;;;3.08;;
25721;SDS011;13578;53.450;15.496;2022-07-10T08:06:38;15.13;;;2.75;;
25721;SDS011;13578;53.450;15.496;2022-07-10T08:09:39;14.68;;;1.90;;
25721;SDS011;13578;53.450;15.496;2022-07-10T08:12:41;15.10;;;2.97;;
25721;SDS011;13578;53.450;15.496;2022-07-10T08:15:43;16.05;;;2.58;;
25721;SDS011;13578;53.450;15.496;2022-07-10T08:18:44;20.50;;;2.55;;
25721;SDS011;13578;53.450;15.496;2022-07-10T08:21:44;12.70;;;2.35;;
25721;SDS011;13578;53.450;15.496;2022-07-10T08:24:45;13.90;;;2.47;;
25721;SDS011;13578;53.450;15.496;2022-07-10T08:27:46;16.30;;;2.25;;
25721;SDS011;13578;53.450;15.496;2022-07-10T08:30:46;19.70;;;3.72;;
25721;SDS011;13578;53.450;15.496;2022-07-10T08:33:47;11.65;;;1.92;;
25721;SDS011;13578;53.450;15.496;2022-07-10T08:36:48;13.68;;;2.13;;
25721;SDS011;13578;53.450;15.496;2022-07-10T08:39:49;12.98;;;1.85;;
25721;SDS011;13578;53.450;15.496;2022-07-10T08:42:50;19.10;;;2.97;;
25721;SDS011;13578;53.450;15.496;2022-07-10T08:45:51;18.00;;;2.53;;
25721;SDS011;13578;53.450;15.496;2022-07-10T08:48:53;18.50;;;2.60;;
25721;SDS011;13578;53.450;15.496;2022-07-10T08:52:00;10.70;;;2.72;;
25721;SDS011;13578;53.450;15.496;2022-07-10T08:55:04;12.05;;;1.98;;
25721;SDS011;13578;53.450;15.496;2022-07-10T08:58:06;10.50;;;2.47;;
25721;SDS011;13578;53.450;15.496;2022-07-10T09:11:18;11.57;;;1.60;;
25721;SDS011;13578;53.450;15.496;2022-07-10T09:14:19;11.82;;;1.75;;
25721;SDS011;13578;53.450;15.496;2022-07-10T09:17:23;11.55;;;1.90;;
25721;SDS011;13578;53.450;15.496;2022-07-10T09:20:25;15.07;;;2.35;;
25721;SDS011;13578;53.450;15.496;2022-07-10T09:23:25;15.07;;;3.35;;
25721;SDS011;13578;53.450;15.496;2022-07-10T09:26:26;16.13;;;5.18;;
25721;SDS011;13578;53.450;15.496;2022-07-10T09:29:27;17.90;;;3.42;;
25721;SDS011;13578;53.450;15.496;2022-07-10T09:32:27;14.23;;;2.42;;
25721;SDS011;13578;53.450;15.496;2022-07-10T09:35:28;13.88;;;2.38;;
25721;SDS011;13578;53.450;15.496;2022-07-10T09:38:48;16.48;;;2.80;;
25721;SDS011;13578;53.450;15.496;2022-07-10T09:41:50;11.57;;;2.15;;
25721;SDS011;13578;53.450;15.496;2022-07-10T09:44:51;14.60;;;1.83;;
25721;SDS011;13578;53.450;15.496;2022-07-10T09:50:56;16.48;;;4.30;;
25721;SDS011;13578;53.450;15.496;2022-07-10T09:53:58;17.55;;;3.15;;
25721;SDS011;13578;53.450;15.496;2022-07-10T09:57:01;15.65;;;2.97;;
25721;SDS011;13578;53.450;15.496;2022-07-10T10:00:04;10.38;;;1.58;;
25721;SDS011;13578;53.450;15.496;2022-07-10T10:03:06;16.88;;;1.92;;
25721;SDS011;13578;53.450;15.496;2022-07-10T10:06:11;8.27;;;1.35;;
25721;SDS011;13578;53.450;15.496;2022-07-10T10:09:22;12.18;;;1.83;;
25721;SDS011;13578;53.450;15.496;2022-07-10T10:12:42;13.30;;;1.88;;
25721;SDS011;13578;53.450;15.496;2022-07-10T10:15:48;8.70;;;2.28;;
25721;SDS011;13578;53.450;15.496;2022-07-10T10:18:50;10.00;;;2.28;;
25721;SDS011;13578;53.450;15.496;2022-07-10T10:22:28;16.00;;;2.08;;
25721;SDS011;13578;53.450;15.496;2022-07-10T10:25:31;11.63;;;2.10;;
25721;SDS011;13578;53.450;15.496;2022-07-10T10:28:33;6.70;;;1.15;;
25721;SDS011;13578;53.450;15.496;2022-07-10T10:31:34;16.38;;;2.33;;
25721;SDS011;13578;53.450;15.496;2022-07-10T10:34:45;8.98;;;1.50;;
25721;SDS011;13578;53.450;15.496;2022-07-10T10:37:55;8.77;;;1.30;;
25721;SDS011;13578;53.450;15.496;2022-07-10T10:41:00;11.80;;;1.95;;
25721;SDS011;13578;53.450;15.496;2022-07-10T10:44:26;10.65;;;1.65;;
25721;SDS011;13578;53.450;15.496;2022-07-10T10:47:56;7.70;;;1.52;;
25721;SDS011;13578;53.450;15.496;2022-07-10T10:51:01;10.27;;;1.50;;
25721;SDS011;13578;53.450;15.496;2022-07-10T10:54:04;17.45;;;2.05;;
25721;SDS011;13578;53.450;15.496;2022-07-10T10:57:15;8.95;;;2.15;;
25721;SDS011;13578;53.450;15.496;2022-07-10T11:00:29;9.50;;;1.73;;
25721;SDS011;13578;53.450;15.496;2022-07-10T11:03:37;8.75;;;1.45;;
25721;SDS011;13578;53.450;15.496;2022-07-10T11:06:42;23.52;;;2.15;;
25721;SDS011;13578;53.450;15.496;2022-07-10T11:09:46;9.65;;;2.22;;
25721;SDS011;13578;53.450;15.496;2022-07-10T11:16:00;7.68;;;1.70;;
25721;SDS011;13578;53.450;15.496;2022-07-10T11:19:01;7.78;;;1.52;;
25721;SDS011;13578;53.450;15.496;2022-07-10T11:25:28;6.80;;;1.60;;
25721;SDS011;13578;53.450;15.496;2022-07-10T11:31:53;6.93;;;1.05;;
25721;SDS011;13578;53.450;15.496;2022-07-10T11:34:55;10.90;;;1.50;;
25721;SDS011;13578;53.450;15.496;2022-07-10T11:37:56;14.38;;;1.63;;
25721;SDS011;13578;53.450;15.496;2022-07-10T11:40:56;9.18;;;1.95;;
25721;SDS011;13578;53.450;15.496;2022-07-10T11:44:03;9.20;;;1.77;;
25721;SDS011;13578;53.450;15.496;2022-07-10T11:47:04;9.88;;;1.48;;
25721;SDS011;13578;53.450;15.496;2022-07-10T11:50:05;16.42;;;2.60;;
25721;SDS011;13578;53.450;15.496;2022-07-10T11:53:07;8.65;;;1.88;;
25721;SDS011;13578;53.450;15.496;2022-07-10T11:56:08;12.25;;;1.95;;
25721;SDS011;13578;53.450;15.496;2022-07-10T11:59:11;9.98;;;1.23;;
25721;SDS011;13578;53.450;15.496;2022-07-10T12:02:21;9.25;;;1.75;;
25721;SDS011;13578;53.450;15.496;2022-07-10T12:05:32;8.57;;;1.10;;
25721;SDS011;13578;53.450;15.496;2022-07-10T12:08:46;10.98;;;1.60;;
25721;SDS011;13578;53.450;15.496;2022-07-10T12:12:03;9.93;;;1.38;;
25721;SDS011;13578;53.450;15.496;2022-07-10T12:15:06;11.93;;;1.48;;
25721;SDS011;13578;53.450;15.496;2022-07-10T12:18:08;6.65;;;1.20;;
25721;SDS011;13578;53.450;15.496;2022-07-10T12:21:15;6.15;;;1.20;;
25721;SDS011;13578;53.450;15.496;2022-07-10T12:24:16;8.82;;;1.63;;
25721;SDS011;13578;53.450;15.496;2022-07-10T12:27:38;7.38;;;1.35;;
25721;SDS011;13578;53.450;15.496;2022-07-10T12:30:43;8.23;;;1.08;;
25721;SDS011;13578;53.450;15.496;2022-07-10T12:34:07;15.77;;;2.05;;
25721;SDS011;13578;53.450;15.496;2022-07-10T12:37:11;10.32;;;1.58;;
25721;SDS011;13578;53.450;15.496;2022-07-10T12:40:29;15.02;;;1.90;;
25721;SDS011;13578;53.450;15.496;2022-07-10T12:43:30;8.02;;;1.05;;
25721;SDS011;13578;53.450;15.496;2022-07-10T12:46:31;10.00;;;1.50;;
25721;SDS011;13578;53.450;15.496;2022-07-10T12:49:46;6.53;;;0.95;;
25721;SDS011;13578;53.450;15.496;2022-07-10T12:53:10;9.80;;;1.23;;
25721;SDS011;13578;53.450;15.496;2022-07-10T12:59:35;11.75;;;1.48;;
25721;SDS011;13578;53.450;15.496;2022-07-10T13:02:37;10.73;;;1.27;;
25721;SDS011;13578;53.450;15.496;2022-07-10T13:05:41;8.38;;;1.10;;
25721;SDS011;13578;53.450;15.496;2022-07-10T13:08:45;5.90;;;1.08;;
25721;SDS011;13578;53.450;15.496;2022-07-10T13:11:47;12.85;;;1.73;;
25721;SDS011;13578;53.450;15.496;2022-07-10T13:14:48;5.20;;;1.00;;
25721;SDS011;13578;53.450;15.496;2022-07-10T13:17:48;7.28;;;1.42;;
25721;SDS011;13578;53.450;15.496;2022-07-10T13:20:50;6.18;;;0.98;;
25721;SDS011;13578;53.450;15.496;2022-07-10T13:23:52;8.18;;;1.42;;
25721;SDS011;13578;53.450;15.496;2022-07-10T13:26:53;8.73;;;1.20;;
25721;SDS011;13578;53.450;15.496;2022-07-10T13:29:57;5.35;;;0.95;;
25721;SDS011;13578;53.450;15.496;2022-07-10T13:32:57;4.68;;;0.85;;
25721;SDS011;13578;53.450;15.496;2022-07-10T13:35:59;8.38;;;0.88;;
25721;SDS011;13578;53.450;15.496;2022-07-10T13:39:01;6.90;;;1.02;;
25721;SDS011;13578;53.450;15.496;2022-07-10T13:42:02;10.52;;;1.27;;
25721;SDS011;13578;53.450;15.496;2022-07-10T13:45:02;5.53;;;0.82;;
25721;SDS011;13578;53.450;15.496;2022-07-10T13:48:04;7.60;;;1.38;;
25721;SDS011;13578;53.450;15.496;2022-07-10T13:51:04;5.03;;;0.70;;
25721;SDS011;13578;53.450;15.496;2022-07-10T13:54:05;10.70;;;1.67;;
25721;SDS011;13578;53.450;15.496;2022-07-10T13:57:06;5.00;;;0.88;;
25721;SDS011;13578;53.450;15.496;2022-07-10T14:00:07;8.13;;;1.33;;
25721;SDS011;13578;53.450;15.496;2022-07-10T14:03:08;4.72;;;0.90;;
25721;SDS011;13578;53.450;15.496;2022-07-10T14:06:09;6.03;;;0.98;;
25721;SDS011;13578;53.450;15.496;2022-07-10T14:09:10;7.25;;;1.27;;
25721;SDS011;13578;53.450;15.496;2022-07-10T14:12:11;8.90;;;1.58;;
25721;SDS011;13578;53.450;15.496;2022-07-10T14:15:12;4.07;;;0.63;;
25721;SDS011;13578;53.450;15.496;2022-07-10T14:18:13;10.00;;;1.23;;
25721;SDS011;13578;53.450;15.496;2022-07-10T14:21:33;13.43;;;1.85;;
25721;SDS011;13578;53.450;15.496;2022-07-10T14:24:34;8.98;;;1.40;;
25721;SDS011;13578;53.450;15.496;2022-07-10T14:27:35;10.80;;;1.20;;
25721;SDS011;13578;53.450;15.496;2022-07-10T14:30:36;10.10;;;0.80;;
25721;SDS011;13578;53.450;15.496;2022-07-10T14:33:36;4.90;;;0.80;;
25721;SDS011;13578;53.450;15.496;2022-07-10T14:36:37;8.32;;;0.70;;
25721;SDS011;13578;53.450;15.496;2022-07-10T14:39:38;3.35;;;0.80;;
25721;SDS011;13578;53.450;15.496;2022-07-10T14:42:38;3.72;;;0.95;;
25721;SDS011;13578;53.450;15.496;2022-07-10T14:45:39;5.15;;;0.80;;
25721;SDS011;13578;53.450;15.496;2022-07-10T14:48:40;4.00;;;0.70;;
25721;SDS011;13578;53.450;15.496;2022-07-10T14:51:40;7.10;;;1.20;;
25721;SDS011;13578;53.450;15.496;2022-07-10T14:54:42;4.25;;;0.85;;
25721;SDS011;13578;53.450;15.496;2022-07-10T14:57:42;4.70;;;0.90;;
25721;SDS011;13578;53.450;15.496;2022-07-10T15:00:43;6.65;;;0.75;;
25721;SDS011;13578;53.450;15.496;2022-07-10T15:03:44;8.63;;;1.15;;
25721;SDS011;13578;53.450;15.496;2022-07-10T15:06:45;5.18;;;0.82;;
25721;SDS011;13578;53.450;15.496;2022-07-10T15:09:47;5.75;;;1.15;;
25721;SDS011;13578;53.450;15.496;2022-07-10T15:12:48;8.48;;;1.10;;
25721;SDS011;13578;53.450;15.496;2022-07-10T15:15:48;9.80;;;1.52;;
25721;SDS011;13578;53.450;15.496;2022-07-10T15:18:51;7.90;;;1.15;;
25721;SDS011;13578;53.450;15.496;2022-07-10T15:21:51;6.68;;;1.08;;
25721;SDS011;13578;53.450;15.496;2022-07-10T15:24:52;7.68;;;1.33;;
25721;SDS011;13578;53.450;15.496;2022-07-10T15:27:53;6.82;;;1.33;;
25721;SDS011;13578;53.450;15.496;2022-07-10T15:30:54;12.88;;;1.90;;
25721;SDS011;13578;53.450;15.496;2022-07-10T15:33:54;4.68;;;0.95;;
25721;SDS011;13578;53.450;15.496;2022-07-10T15:36:55;3.13;;;0.65;;
25721;SDS011;13578;53.450;15.496;2022-07-10T15:39:55;3.95;;;0.80;;
25721;SDS011;13578;53.450;15.496;2022-07-10T15:42:56;3.97;;;1.08;;
25721;SDS011;13578;53.450;15.496;2022-07-10T15:45:57;8.48;;;1.10;;
25721;SDS011;13578;53.450;15.496;2022-07-10T15:48:59;5.63;;;1.27;;
25721;SDS011;13578;53.450;15.496;2022-07-10T15:52:00;4.70;;;0.88;;
25721;SDS011;13578;53.450;15.496;2022-07-10T15:55:00;9.57;;;1.20;;
25721;SDS011;13578;53.450;15.496;2022-07-10T15:58:01;6.60;;;1.25;;
25721;SDS011;13578;53.450;15.496;2022-07-10T16:01:02;6.22;;;0.90;;
25721;SDS011;13578;53.450;15.496;2022-07-10T16:04:02;8.60;;;0.73;;
25721;SDS011;13578;53.450;15.496;2022-07-10T16:07:04;5.10;;;1.13;;
25721;SDS011;13578;53.450;15.496;2022-07-10T16:10:05;6.15;;;0.90;;
25721;SDS011;13578;53.450;15.496;2022-07-10T16:13:06;6.40;;;1.02;;
25721;SDS011;13578;53.450;15.496;2022-07-10T16:16:06;6.57;;;0.98;;
25721;SDS011;13578;53.450;15.496;2022-07-10T16:19:07;6.10;;;1.10;;
25721;SDS011;13578;53.450;15.496;2022-07-10T16:22:08;5.55;;;1.15;;
25721;SDS011;13578;53.450;15.496;2022-07-10T16:25:09;9.30;;;1.67;;
25721;SDS011;13578;53.450;15.496;2022-07-10T16:28:28;7.38;;;0.70;;
25721;SDS011;13578;53.450;15.496;2022-07-10T16:31:30;4.75;;;0.90;;
25721;SDS011;13578;53.450;15.496;2022-07-10T16:34:33;9.15;;;1.27;;
25721;SDS011;13578;53.450;15.496;2022-07-10T16:37:33;8.77;;;1.23;;
25721;SDS011;13578;53.450;15.496;2022-07-10T16:40:34;8.73;;;1.20;;
25721;SDS011;13578;53.450;15.496;2022-07-10T16:43:35;11.65;;;1.40;;
25721;SDS011;13578;53.450;15.496;2022-07-10T16:46:36;7.55;;;1.38;;
25721;SDS011;13578;53.450;15.496;2022-07-10T16:49:37;2.95;;;0.88;;
25721;SDS011;13578;53.450;15.496;2022-07-10T16:52:38;4.82;;;0.80;;
25721;SDS011;13578;53.450;15.496;2022-07-10T16:55:40;6.30;;;1.40;;
25721;SDS011;13578;53.450;15.496;2022-07-10T16:58:41;8.50;;;1.27;;
25721;SDS011;13578;53.450;15.496;2022-07-10T17:01:42;6.35;;;1.15;;
25721;SDS011;13578;53.450;15.496;2022-07-10T17:04:43;4.78;;;1.30;;
25721;SDS011;13578;53.450;15.496;2022-07-10T17:07:43;6.63;;;1.02;;
25721;SDS011;13578;53.450;15.496;2022-07-10T17:10:44;4.38;;;0.80;;
25721;SDS011;13578;53.450;15.496;2022-07-10T17:13:45;10.57;;;1.48;;
25721;SDS011;13578;53.450;15.496;2022-07-10T17:16:45;8.98;;;1.20;;
25721;SDS011;13578;53.450;15.496;2022-07-10T17:19:46;9.15;;;1.10;;
25721;SDS011;13578;53.450;15.496;2022-07-10T17:22:47;6.47;;;0.90;;
25721;SDS011;13578;53.450;15.496;2022-07-10T17:25:47;6.03;;;1.48;;
25721;SDS011;13578;53.450;15.496;2022-07-10T17:28:48;7.55;;;1.05;;
25721;SDS011;13578;53.450;15.496;2022-07-10T17:31:49;4.50;;;1.23;;
25721;SDS011;13578;53.450;15.496;2022-07-10T17:34:50;2.97;;;0.68;;
25721;SDS011;13578;53.450;15.496;2022-07-10T17:37:51;7.10;;;1.30;;
25721;SDS011;13578;53.450;15.496;2022-07-10T17:40:52;5.95;;;0.95;;
25721;SDS011;13578;53.450;15.496;2022-07-10T17:43:53;8.07;;;1.45;;
25721;SDS011;13578;53.450;15.496;2022-07-10T17:46:54;5.47;;;0.90;;
25721;SDS011;13578;53.450;15.496;2022-07-10T17:49:56;11.45;;;1.15;;
25721;SDS011;13578;53.450;15.496;2022-07-10T17:52:57;12.52;;;1.15;;
25721;SDS011;13578;53.450;15.496;2022-07-10T17:55:58;10.93;;;1.40;;
25721;SDS011;13578;53.450;15.496;2022-07-10T17:58:58;8.35;;;1.65;;
25721;SDS011;13578;53.450;15.496;2022-07-10T18:01:59;5.03;;;1.17;;
25721;SDS011;13578;53.450;15.496;2022-07-10T18:05:00;8.70;;;1.40;;
25721;SDS011;13578;53.450;15.496;2022-07-10T18:08:00;8.40;;;1.80;;
25721;SDS011;13578;53.450;15.496;2022-07-10T18:11:01;9.52;;;1.38;;
25721;SDS011;13578;53.450;15.496;2022-07-10T18:14:05;4.03;;;0.90;;
25721;SDS011;13578;53.450;15.496;2022-07-10T18:17:05;11.73;;;1.38;;